Time,TemperatureF,DewpointF,PressureIn,WindDirection,WindDirectionDegrees,WindSpeedMPH,WindSpeedGustMPH,Humidity,HourlyPrecipIn,Conditions,Clouds,dailyrainin,SoftwareType,DateUTC
2013-12-28 00:01:00,23.5,15.2,30.08,NNE,22,0.0,0.0,70,0.00,,SKC,0.00,VWS V14.01,2013-12-28 08:01:00,
2013-12-28 00:06:00,23.4,15.0,30.08,NNE,22,0.0,0.0,70,0.00,,SKC,0.00,VWS V14.01,2013-12-28 08:06:00,
2013-12-28 00:11:00,23.4,15.0,30.08,NNE,22,0.0,0.0,70,0.00,,SKC,0.00,VWS V14.01,2013-12-28 08:11:00,
2013-12-28 00:16:00,23.0,14.7,30.08,NNE,22,0.0,0.0,70,0.00,,SKC,0.00,VWS V14.01,2013-12-28 08:16:00,
2013-12-28 00:21:00,23.0,14.4,30.08,West,279,0.0,0.0,69,0.00,,SKC,0.00,VWS V14.01,2013-12-28 08:21:00,
2013-12-28 00:26:00,23.0,14.4,30.08,West,261,3.1,3.6,69,0.00,,SKC,0.00,VWS V14.01,2013-12-28 08:26:00,
2013-12-28 00:31:00,23.2,14.5,30.08,NW,318,0.0,0.0,69,0.00,,SKC,0.00,VWS V14.01,2013-12-28 08:31:00,
2013-12-28 00:36:00,23.0,14.4,30.08,NW,321,0.0,0.0,69,0.00,,SKC,0.00,VWS V14.01,2013-12-28 08:36:00,
2013-12-28 00:41:00,23.0,14.4,30.08,NE,50,3.1,4.9,69,0.00,,SKC,0.00,VWS V14.01,2013-12-28 08:41:00,
2013-12-28 00:46:00,22.8,14.2,30.08,SSW,196,0.0,0.0,69,0.00,,SKC,0.00,VWS V14.01,2013-12-28 08:46:00,
2013-12-28 00:51:00,22.8,14.8,30.08,NE,44,0.0,4.5,71,0.00,,SKC,0.00,VWS V14.01,2013-12-28 08:51:00,
2013-12-28 00:56:00,23.0,15.0,30.08,NE,34,0.0,0.0,71,0.00,,SKC,0.00,VWS V14.01,2013-12-28 08:56:00,
2013-12-28 01:01:00,22.6,14.3,30.08,NE,34,0.0,0.0,70,0.00,,SKC,0.00,VWS V14.01,2013-12-28 09:01:00,
2013-12-28 01:06:00,22.6,14.3,30.08,NE,34,0.0,0.0,70,0.00,,SKC,0.00,VWS V14.01,2013-12-28 09:06:00,
2013-12-28 01:11:00,23.2,15.8,30.08,SE,141,2.7,4.0,73,0.00,,SKC,0.00,VWS V14.01,2013-12-28 09:11:00,
2013-12-28 01:16:00,23.2,15.5,30.08,NW,308,0.0,2.2,72,0.00,,SKC,0.00,VWS V14.01,2013-12-28 09:16:00,
2013-12-28 01:21:00,23.0,15.0,30.08,North,3,0.0,0.0,71,0.00,,SKC,0.00,VWS V14.01,2013-12-28 09:21:00,
2013-12-28 01:26:00,23.0,15.0,30.08,NNE,24,0.0,0.0,71,0.00,,SKC,0.00,VWS V14.01,2013-12-28 09:26:00,
2013-12-28 01:31:00,23.2,15.2,30.08,ENE,78,4.5,5.4,71,0.00,,SKC,0.00,VWS V14.01,2013-12-28 09:31:00,
2013-12-28 01:36:00,23.5,15.2,30.08,North,0,2.7,2.7,70,0.00,,SKC,0.00,VWS V14.01,2013-12-28 09:36:00,
2013-12-28 01:40:00,23.4,14.0,30.08,North,0,0.0,0.0,67,0.00,,SKC,0.00,VWS V14.01,2013-12-28 09:40:00,
2013-12-28 01:45:00,23.2,12.5,30.08,ESE,114,0.0,0.0,63,0.00,,SKC,0.00,VWS V14.01,2013-12-28 09:45:00,
2013-12-28 01:50:00,23.2,11.4,30.08,SE,125,0.0,0.0,60,0.00,,SKC,0.00,VWS V14.01,2013-12-28 09:50:00,
2013-12-28 01:55:00,23.4,11.5,30.08,SE,126,0.0,0.0,60,0.00,,SKC,0.00,VWS V14.01,2013-12-28 09:55:00,
2013-12-28 02:00:00,23.5,11.3,30.08,ESE,122,3.1,5.4,59,0.00,,SKC,0.00,VWS V14.01,2013-12-28 10:00:00,
2013-12-28 02:05:00,24.1,11.5,30.08,West,265,0.0,4.0,58,0.00,,SKC,0.00,VWS V14.01,2013-12-28 10:05:00,
2013-12-28 02:10:00,24.1,11.1,30.08,West,269,3.1,5.8,57,0.00,,SKC,0.00,VWS V14.01,2013-12-28 10:10:00,
2013-12-28 02:15:00,23.7,10.7,30.08,WNW,286,0.0,0.0,57,0.00,,SKC,0.00,VWS V14.01,2013-12-28 10:15:00,
2013-12-28 02:20:00,23.2,10.2,30.08,North,10,0.0,0.0,57,0.00,,SKC,0.00,VWS V14.01,2013-12-28 10:20:00,
2013-12-28 02:25:00,22.8,10.6,30.08,SSE,166,0.0,0.0,59,0.00,,SKC,0.00,VWS V14.01,2013-12-28 10:25:00,
2013-12-28 02:30:00,22.5,10.3,30.08,ENE,76,0.0,2.2,59,0.00,,SKC,0.00,VWS V14.01,2013-12-28 10:30:00,
2013-12-28 02:35:00,22.3,10.1,30.08,SE,135,0.0,0.0,59,0.00,,SKC,0.00,VWS V14.01,2013-12-28 10:35:00,
2013-12-28 02:40:00,21.7,10.0,30.08,NW,310,5.4,5.4,60,0.00,,SKC,0.00,VWS V14.01,2013-12-28 10:40:00,
2013-12-28 02:45:00,21.9,10.9,30.08,North,5,0.0,2.7,62,0.00,,SKC,0.00,VWS V14.01,2013-12-28 10:45:00,
2013-12-28 02:50:00,21.7,10.7,30.08,NE,51,0.0,0.0,62,0.00,,SKC,0.00,VWS V14.01,2013-12-28 10:50:00,
2013-12-28 02:55:00,21.9,11.3,30.08,ENE,62,0.0,0.0,63,0.00,,SKC,0.00,VWS V14.01,2013-12-28 10:55:00,
2013-12-28 03:00:00,21.9,11.3,30.08,ENE,59,0.0,0.0,63,0.00,,SKC,0.00,VWS V14.01,2013-12-28 11:00:00,
2013-12-28 03:02:00,21.7,10.7,30.08,NW,323,0.0,0.0,62,0.00,,SKC,0.00,VWS V14.01,2013-12-28 11:02:00,
2013-12-28 03:07:00,21.7,11.1,30.08,ESE,105,4.0,4.0,63,0.00,,SKC,0.00,VWS V14.01,2013-12-28 11:07:00,
2013-12-28 03:12:00,21.7,11.1,30.08,SSE,168,2.7,2.7,63,0.00,,SKC,0.00,VWS V14.01,2013-12-28 11:12:00,
2013-12-28 03:17:00,21.9,11.3,30.08,East,91,2.7,2.7,63,0.00,,SKC,0.00,VWS V14.01,2013-12-28 11:17:00,
2013-12-28 03:22:00,22.5,10.7,30.08,ESE,119,3.1,3.1,60,0.00,,SKC,0.00,VWS V14.01,2013-12-28 11:22:00,
2013-12-28 03:27:00,22.8,9.1,30.08,East,99,2.7,2.7,55,0.00,,SKC,0.00,VWS V14.01,2013-12-28 11:27:00,
2013-12-28 03:32:00,23.2,6.4,30.08,ESE,112,0.0,0.0,48,0.00,,SKC,0.00,VWS V14.01,2013-12-28 11:32:00,
2013-12-28 03:37:00,23.2,5.9,30.08,WNW,297,4.0,4.0,47,0.00,,SKC,0.00,VWS V14.01,2013-12-28 11:37:00,
2013-12-28 03:42:00,22.8,6.5,30.08,ESE,103,3.1,3.1,49,0.00,,SKC,0.00,VWS V14.01,2013-12-28 11:42:00,
2013-12-28 03:47:00,22.8,6.1,30.05,NNW,328,2.7,2.7,48,0.00,,SKC,0.00,VWS V14.01,2013-12-28 11:47:00,
2013-12-28 03:52:00,22.5,6.2,30.05,NNW,328,0.0,0.0,49,0.00,,SKC,0.00,VWS V14.01,2013-12-28 11:52:00,
2013-12-28 03:57:00,22.1,6.8,30.05,NNE,17,2.7,5.4,51,0.00,,SKC,0.00,VWS V14.01,2013-12-28 11:57:00,
2013-12-28 04:02:00,21.9,6.6,30.08,NE,47,0.0,0.0,51,0.00,,SKC,0.00,VWS V14.01,2013-12-28 12:02:00,
2013-12-28 04:07:00,21.7,6.8,30.08,NE,56,0.0,0.0,52,0.00,,SKC,0.00,VWS V14.01,2013-12-28 12:07:00,
2013-12-28 04:12:00,21.2,6.8,30.08,NE,40,0.0,0.0,53,0.00,,SKC,0.00,VWS V14.01,2013-12-28 12:12:00,
2013-12-28 04:17:00,21.2,6.8,30.08,NE,41,0.0,0.0,53,0.00,,SKC,0.00,VWS V14.01,2013-12-28 12:17:00,
2013-12-28 04:22:00,20.8,6.8,30.08,NE,46,0.0,0.0,54,0.00,,SKC,0.00,VWS V14.01,2013-12-28 12:22:00,
2013-12-28 04:27:00,20.8,6.4,30.08,NE,46,0.0,0.0,53,0.00,,SKC,0.00,VWS V14.01,2013-12-28 12:27:00,
2013-12-28 04:32:00,20.5,6.5,30.08,SW,235,0.0,0.0,54,0.00,,SKC,0.00,VWS V14.01,2013-12-28 12:32:00,
2013-12-28 04:37:00,20.1,6.2,30.08,South,187,0.0,0.0,54,0.00,,SKC,0.00,VWS V14.01,2013-12-28 12:37:00,
2013-12-28 04:42:00,19.6,6.1,30.08,SW,214,0.0,0.0,55,0.00,,SKC,0.00,VWS V14.01,2013-12-28 12:42:00,
2013-12-28 04:47:00,19.2,6.5,30.08,SW,215,0.0,0.0,57,0.00,,SKC,0.00,VWS V14.01,2013-12-28 12:47:00,
2013-12-28 04:52:00,19.0,6.7,30.08,SW,215,0.0,0.0,58,0.00,,SKC,0.00,VWS V14.01,2013-12-28 12:52:00,
2013-12-28 04:57:00,18.5,6.6,30.08,SW,214,0.0,0.0,59,0.00,,SKC,0.00,VWS V14.01,2013-12-28 12:57:00,
2013-12-28 05:02:00,18.3,7.1,30.08,SW,214,0.0,0.0,61,0.00,,SKC,0.00,VWS V14.01,2013-12-28 13:02:00,
2013-12-28 05:07:00,18.5,9.1,30.08,SSW,206,3.1,5.8,66,0.00,,SKC,0.00,VWS V14.01,2013-12-28 13:07:00,
2013-12-28 05:12:00,18.7,9.6,30.08,South,184,2.7,4.0,67,0.00,,SKC,0.00,VWS V14.01,2013-12-28 13:12:00,
2013-12-28 05:17:00,19.4,11.2,30.08,East,96,0.0,0.0,70,0.00,,SKC,0.00,VWS V14.01,2013-12-28 13:17:00,
2013-12-28 05:22:00,19.4,11.6,30.08,ESE,106,0.0,0.0,71,0.00,,SKC,0.00,VWS V14.01,2013-12-28 13:22:00,
2013-12-28 05:27:00,19.6,11.4,30.08,ESE,106,0.0,0.0,70,0.00,,SKC,0.00,VWS V14.01,2013-12-28 13:27:00,
2013-12-28 05:32:00,19.4,10.9,30.08,SE,127,4.0,6.3,69,0.00,,SKC,0.00,VWS V14.01,2013-12-28 13:32:00,
2013-12-28 05:37:00,20.1,11.3,30.08,SE,125,0.0,0.0,68,0.00,,SKC,0.00,VWS V14.01,2013-12-28 13:37:00,
2013-12-28 05:42:00,20.7,7.5,30.08,East,99,0.0,0.0,56,0.00,,SKC,0.00,VWS V14.01,2013-12-28 13:42:00,
2013-12-28 05:47:00,21.2,6.8,30.08,ESE,102,0.0,0.0,53,0.00,,SKC,0.00,VWS V14.01,2013-12-28 13:47:00,
2013-12-28 05:52:00,20.8,4.7,30.08,NE,44,0.0,0.0,49,0.00,,SKC,0.00,VWS V14.01,2013-12-28 13:52:00,
2013-12-28 05:57:00,21.2,4.6,30.08,East,90,4.0,4.9,48,0.00,,SKC,0.00,VWS V14.01,2013-12-28 13:57:00,
2013-12-28 06:02:00,21.9,4.3,30.08,East,83,2.7,3.1,46,0.00,,SKC,0.00,VWS V14.01,2013-12-28 14:02:00,
2013-12-28 06:07:00,21.9,3.8,30.08,East,83,2.2,2.7,45,0.00,,SKC,0.00,VWS V14.01,2013-12-28 14:07:00,
2013-12-28 06:12:00,21.7,3.7,30.08,East,80,0.0,0.0,45,0.00,,SKC,0.00,VWS V14.01,2013-12-28 14:12:00,
2013-12-28 06:17:00,21.2,4.1,30.08,NE,37,5.4,5.8,47,0.00,,SKC,0.00,VWS V14.01,2013-12-28 14:17:00,
2013-12-28 06:22:00,21.0,4.0,30.08,NNE,33,4.9,5.4,47,0.00,,SKC,0.00,VWS V14.01,2013-12-28 14:22:00,
2013-12-28 06:27:00,21.0,3.5,30.08,NE,37,4.0,4.5,46,0.00,,SKC,0.00,VWS V14.01,2013-12-28 14:27:00,
2013-12-28 06:32:00,20.5,3.0,30.11,NE,44,3.1,3.6,46,0.00,,SKC,0.00,VWS V14.01,2013-12-28 14:32:00,
2013-12-28 06:37:00,20.3,3.3,30.11,NE,44,0.0,0.0,47,0.00,,SKC,0.00,VWS V14.01,2013-12-28 14:37:00,
2013-12-28 06:42:00,19.9,3.0,30.11,NE,44,0.0,0.0,47,0.00,,SKC,0.00,VWS V14.01,2013-12-28 14:42:00,
2013-12-28 06:47:00,19.2,2.3,30.11,North,0,0.0,0.0,47,0.00,,SKC,0.00,VWS V14.01,2013-12-28 14:47:00,
2013-12-28 06:52:00,18.3,1.9,30.11,NNW,337,0.0,0.0,48,0.00,,SKC,0.00,VWS V14.01,2013-12-28 14:52:00,
2013-12-28 06:57:00,18.3,4.1,30.11,WSW,239,0.0,0.0,53,0.00,,SKC,0.00,VWS V14.01,2013-12-28 14:57:00,
2013-12-28 07:02:00,18.3,4.1,30.11,SSW,195,0.0,0.0,53,0.00,,SKC,0.00,VWS V14.01,2013-12-28 15:02:00,
2013-12-28 07:07:00,17.4,4.0,30.11,SSW,193,0.0,0.0,55,0.00,,SKC,0.00,VWS V14.01,2013-12-28 15:07:00,
2013-12-28 07:12:00,16.9,3.9,30.11,SSW,192,0.0,0.0,56,0.00,,SKC,0.00,VWS V14.01,2013-12-28 15:12:00,
2013-12-28 07:17:00,16.3,3.8,30.14,SSW,192,0.0,0.0,57,0.00,,SKC,0.00,VWS V14.01,2013-12-28 15:17:00,
2013-12-28 07:22:00,16.0,3.8,30.14,SSW,192,0.0,0.0,58,0.00,,SKC,0.00,VWS V14.01,2013-12-28 15:22:00,
2013-12-28 07:27:00,15.8,4.4,30.14,South,191,0.0,0.0,60,0.00,,SKC,0.00,VWS V14.01,2013-12-28 15:27:00,
2013-12-28 07:32:00,15.6,5.3,30.14,South,186,0.0,0.0,63,0.00,,SKC,0.00,VWS V14.01,2013-12-28 15:32:00,
2013-12-28 07:37:00,15.4,5.8,30.14,South,175,0.0,0.0,65,0.00,,SKC,0.00,VWS V14.01,2013-12-28 15:37:00,
2013-12-28 07:42:00,15.4,6.1,30.14,SSE,149,0.0,0.0,66,0.00,,SKC,0.00,VWS V14.01,2013-12-28 15:42:00,
2013-12-28 07:47:00,16.5,7.5,30.14,SE,137,0.0,0.0,67,0.00,,SKC,0.00,VWS V14.01,2013-12-28 15:47:00,
2013-12-28 07:52:00,18.3,10.2,30.14,SE,124,3.1,4.0,70,0.00,,SKC,0.00,VWS V14.01,2013-12-28 15:52:00,
2013-12-28 07:57:00,20.3,10.8,30.14,SE,125,0.0,0.0,66,0.00,,SKC,0.00,VWS V14.01,2013-12-28 15:57:00,
2013-12-28 08:02:00,21.7,8.1,30.14,ESE,117,0.0,0.0,55,0.00,,SKC,0.00,VWS V14.01,2013-12-28 16:02:00,
2013-12-28 08:07:00,23.2,8.6,30.14,SE,135,0.0,0.0,53,0.00,,SKC,0.00,VWS V14.01,2013-12-28 16:07:00,
2013-12-28 08:12:00,25.0,6.2,30.14,SE,124,0.0,0.0,44,0.00,,SKC,0.00,VWS V14.01,2013-12-28 16:12:00,
2013-12-28 08:17:00,26.6,6.6,30.16,SE,126,0.0,0.0,42,0.00,,SKC,0.00,VWS V14.01,2013-12-28 16:17:00,
2013-12-28 08:22:00,27.0,6.4,30.16,SE,126,0.0,0.0,41,0.00,,SKC,0.00,VWS V14.01,2013-12-28 16:22:00,
2013-12-28 08:27:00,27.3,6.7,30.16,SE,126,0.0,0.0,41,0.00,,SKC,0.00,VWS V14.01,2013-12-28 16:27:00,
2013-12-28 08:32:00,27.7,7.1,30.16,SE,127,0.0,0.0,41,0.00,,SKC,0.00,VWS V14.01,2013-12-28 16:32:00,
2013-12-28 08:37:00,28.9,8.2,30.16,SE,127,0.0,0.0,41,0.00,,SKC,0.00,VWS V14.01,2013-12-28 16:37:00,
2013-12-28 08:41:00,30.2,9.4,30.16,SE,127,0.0,0.0,41,0.00,,SKC,0.00,VWS V14.01,2013-12-28 16:41:00,
2013-12-28 08:46:00,31.5,8.8,30.19,SE,127,0.0,0.0,38,0.00,,SKC,0.00,VWS V14.01,2013-12-28 16:46:00,
2013-12-28 08:51:00,32.2,7.6,30.19,SE,127,0.0,0.0,35,0.00,,SKC,0.00,VWS V14.01,2013-12-28 16:51:00,
2013-12-28 08:56:00,32.2,8.2,30.19,SE,129,0.0,0.0,36,0.00,,SKC,0.00,VWS V14.01,2013-12-28 16:56:00,
2013-12-28 09:01:00,32.7,7.5,30.19,West,277,0.0,0.0,34,0.00,,SKC,0.00,VWS V14.01,2013-12-28 17:01:00,
2013-12-28 09:06:00,33.4,8.1,30.19,WNW,299,0.0,0.0,34,0.00,,SKC,0.00,VWS V14.01,2013-12-28 17:06:00,
2013-12-28 09:11:00,34.2,8.1,30.19,WNW,299,0.0,0.0,33,0.00,,SKC,0.00,VWS V14.01,2013-12-28 17:11:00,
2013-12-28 09:16:00,35.1,8.2,30.19,WNW,299,0.0,0.0,32,0.00,,SKC,0.00,VWS V14.01,2013-12-28 17:16:00,
2013-12-28 09:21:00,35.4,7.8,30.19,WNW,299,0.0,0.0,31,0.00,,SKC,0.00,VWS V14.01,2013-12-28 17:21:00,
2013-12-28 09:26:00,36.3,7.9,30.19,WNW,299,0.0,0.0,30,0.00,,SKC,0.00,VWS V14.01,2013-12-28 17:26:00,
2013-12-28 09:31:00,36.7,8.2,30.19,WNW,296,0.0,0.0,30,0.00,,SKC,0.00,VWS V14.01,2013-12-28 17:31:00,
2013-12-28 09:36:00,36.7,8.2,30.19,WNW,295,0.0,0.0,30,0.00,,SKC,0.00,VWS V14.01,2013-12-28 17:36:00,
2013-12-28 09:41:00,37.0,8.5,30.19,WNW,290,0.0,0.0,30,0.00,,SKC,0.00,VWS V14.01,2013-12-28 17:41:00,
2013-12-28 09:46:00,38.1,8.7,30.19,WNW,289,0.0,0.0,29,0.00,,SKC,0.00,VWS V14.01,2013-12-28 17:46:00,
2013-12-28 09:51:00,39.4,9.0,30.19,WNW,289,0.0,0.0,28,0.00,,SKC,0.00,VWS V14.01,2013-12-28 17:51:00,
2013-12-28 09:56:00,39.9,7.8,30.19,WNW,289,0.0,0.0,26,0.00,,SKC,0.00,VWS V14.01,2013-12-28 17:56:00,
2013-12-28 10:01:00,39.7,7.7,30.19,NE,44,0.0,0.0,26,0.00,,SKC,0.00,VWS V14.01,2013-12-28 18:01:00,
2013-12-28 10:06:00,39.7,7.7,30.19,NE,50,0.0,0.0,26,0.00,,SKC,0.00,VWS V14.01,2013-12-28 18:06:00,
2013-12-28 10:11:00,40.5,5.6,30.19,NE,46,0.0,0.0,23,0.00,,SKC,0.00,VWS V14.01,2013-12-28 18:11:00,
2013-12-28 10:16:00,40.8,5.9,30.22,NW,325,0.0,0.0,23,0.00,,SKC,0.00,VWS V14.01,2013-12-28 18:16:00,
2013-12-28 10:21:00,41.5,6.5,30.22,NW,315,0.0,0.0,23,0.00,,SKC,0.00,VWS V14.01,2013-12-28 18:21:00,
2013-12-28 10:26:00,42.3,7.1,30.22,WNW,297,3.6,4.0,23,0.00,,SKC,0.00,VWS V14.01,2013-12-28 18:26:00,
2013-12-28 10:31:00,41.2,10.6,30.22,West,265,5.8,6.3,28,0.00,,SKC,0.00,VWS V14.01,2013-12-28 18:31:00,
2013-12-28 10:36:00,40.5,10.7,30.22,WNW,283,2.7,3.6,29,0.00,,SKC,0.00,VWS V14.01,2013-12-28 18:36:00,
2013-12-28 10:41:00,40.5,10.7,30.22,WNW,289,4.0,5.4,29,0.00,,SKC,0.00,VWS V14.01,2013-12-28 18:41:00,
2013-12-28 10:46:00,40.5,10.7,30.22,WNW,283,5.4,5.4,29,0.00,,SKC,0.00,VWS V14.01,2013-12-28 18:46:00,
2013-12-28 10:51:00,40.5,10.7,30.22,WNW,300,3.6,5.4,29,0.00,,SKC,0.00,VWS V14.01,2013-12-28 18:51:00,
2013-12-28 10:56:00,40.5,10.7,30.22,West,279,0.0,3.1,29,0.00,,SKC,0.00,VWS V14.01,2013-12-28 18:56:00,
2013-12-28 11:01:00,41.0,10.4,30.19,West,279,0.0,0.0,28,0.00,,SKC,0.00,VWS V14.01,2013-12-28 19:01:00,
2013-12-28 11:06:00,41.7,11.0,30.19,West,279,0.0,0.0,28,0.00,,SKC,0.00,VWS V14.01,2013-12-28 19:06:00,
2013-12-28 11:11:00,43.0,12.1,30.19,West,279,0.0,0.0,28,0.00,,SKC,0.00,VWS V14.01,2013-12-28 19:11:00,
2013-12-28 11:16:00,44.1,10.5,30.19,SE,139,0.0,2.7,25,0.00,,SKC,0.00,VWS V14.01,2013-12-28 19:16:00,
2013-12-28 11:21:00,44.8,11.1,30.19,SSE,155,0.0,2.2,25,0.00,,SKC,0.00,VWS V14.01,2013-12-28 19:21:00,
2013-12-28 11:26:00,45.3,8.7,30.19,SE,143,2.7,3.6,22,0.00,,SKC,0.00,VWS V14.01,2013-12-28 19:26:00,
2013-12-28 11:31:00,46.0,9.3,30.19,South,169,0.0,0.0,22,0.00,,SKC,0.00,VWS V14.01,2013-12-28 19:31:00,
2013-12-28 11:36:00,46.6,9.8,30.19,East,95,0.0,0.0,22,0.00,,SKC,0.00,VWS V14.01,2013-12-28 19:36:00,
2013-12-28 11:41:00,46.8,9.9,30.19,ESE,117,0.0,0.0,22,0.00,,SKC,0.00,VWS V14.01,2013-12-28 19:41:00,
2013-12-28 11:46:00,47.3,10.4,30.19,North,7,0.0,0.0,22,0.00,,SKC,0.00,VWS V14.01,2013-12-28 19:46:00,
2013-12-28 11:51:00,47.7,10.7,30.19,NNW,340,0.0,0.0,22,0.00,,SKC,0.00,VWS V14.01,2013-12-28 19:51:00,
2013-12-28 11:56:00,48.4,10.3,30.19,North,0,0.0,0.0,21,0.00,,SKC,0.00,VWS V14.01,2013-12-28 19:56:00,
2013-12-28 12:01:00,48.7,10.6,30.16,NNW,344,5.4,5.4,21,0.00,,SKC,0.00,VWS V14.01,2013-12-28 20:01:00,
2013-12-28 12:06:00,49.3,11.0,30.16,NW,307,0.0,0.0,21,0.00,,SKC,0.00,VWS V14.01,2013-12-28 20:06:00,
2013-12-28 12:11:00,50.0,11.6,30.16,WNW,291,3.1,5.8,21,0.00,,SKC,0.00,VWS V14.01,2013-12-28 20:11:00,
2013-12-28 12:16:00,50.2,11.8,30.16,NNW,327,4.9,4.9,21,0.00,,SKC,0.00,VWS V14.01,2013-12-28 20:16:00,
2013-12-28 12:21:00,50.0,11.6,30.16,North,349,4.0,5.8,21,0.00,,SKC,0.00,VWS V14.01,2013-12-28 20:21:00,
2013-12-28 12:26:00,49.1,10.9,30.16,NNW,346,8.3,8.3,21,0.00,,SKC,0.00,VWS V14.01,2013-12-28 20:26:00,
2013-12-28 12:31:00,48.7,10.6,30.16,NNW,341,3.6,5.8,21,0.00,,SKC,0.00,VWS V14.01,2013-12-28 20:31:00,
2013-12-28 12:36:00,49.1,10.9,30.16,NW,326,4.0,5.8,21,0.00,,SKC,0.00,VWS V14.01,2013-12-28 20:36:00,
2013-12-28 12:41:00,49.6,11.3,30.16,NW,314,4.9,5.8,21,0.00,,SKC,0.00,VWS V14.01,2013-12-28 20:41:00,
2013-12-28 12:46:00,49.8,9.2,30.16,NW,311,6.3,6.3,19,0.00,,SKC,0.00,VWS V14.01,2013-12-28 20:46:00,
2013-12-28 12:51:00,50.2,9.5,30.16,WNW,292,8.1,8.1,19,0.00,,SKC,0.00,VWS V14.01,2013-12-28 20:51:00,
2013-12-28 12:56:00,50.2,11.8,30.16,North,353,4.9,4.9,21,0.00,,SKC,0.00,VWS V14.01,2013-12-28 20:56:00,
2013-12-28 13:01:00,50.5,12.1,30.16,NW,314,6.3,6.3,21,0.00,,SKC,0.00,VWS V14.01,2013-12-28 21:01:00,
2013-12-28 13:06:00,50.5,9.8,30.16,NW,306,6.3,8.1,19,0.00,,SKC,0.00,VWS V14.01,2013-12-28 21:06:00,
2013-12-28 13:11:00,50.5,12.1,30.16,NNW,346,3.6,5.4,21,0.00,,SKC,0.00,VWS V14.01,2013-12-28 21:11:00,
2013-12-28 13:16:00,50.9,10.1,30.16,North,353,5.8,6.3,19,0.00,,SKC,0.00,VWS V14.01,2013-12-28 21:16:00,
2013-12-28 13:21:00,51.1,12.5,30.16,NNW,328,5.8,5.8,21,0.00,,SKC,0.00,VWS V14.01,2013-12-28 21:21:00,
2013-12-28 13:26:00,50.9,10.1,30.16,North,353,6.3,6.3,19,0.00,,SKC,0.00,VWS V14.01,2013-12-28 21:26:00,
2013-12-28 13:31:00,51.3,10.4,30.16,WNW,302,5.8,6.7,19,0.00,,SKC,0.00,VWS V14.01,2013-12-28 21:31:00,
2013-12-28 13:36:00,51.3,10.4,30.16,NW,313,5.4,5.4,19,0.00,,SKC,0.00,VWS V14.01,2013-12-28 21:36:00,
2013-12-28 13:41:00,51.4,10.6,30.16,NW,313,5.4,5.4,19,0.00,,SKC,0.00,VWS V14.01,2013-12-28 21:41:00,
2013-12-28 13:46:00,50.4,9.7,30.16,NW,307,5.8,5.8,19,0.00,,SKC,0.00,VWS V14.01,2013-12-28 21:46:00,
2013-12-28 13:51:00,50.4,9.7,30.16,NW,322,6.3,6.3,19,0.00,,SKC,0.00,VWS V14.01,2013-12-28 21:51:00,
2013-12-28 13:56:00,50.5,9.8,30.16,North,5,4.0,5.8,19,0.00,,SKC,0.00,VWS V14.01,2013-12-28 21:56:00,
2013-12-28 14:01:00,50.7,10.0,30.16,NW,325,3.6,3.6,19,0.00,,SKC,0.00,VWS V14.01,2013-12-28 22:01:00,
2013-12-28 14:06:00,49.6,9.1,30.16,WNW,283,3.6,5.8,19,0.00,,SKC,0.00,VWS V14.01,2013-12-28 22:06:00,
2013-12-28 14:11:00,48.7,8.3,30.16,WNW,298,5.8,5.8,19,0.00,,SKC,0.00,VWS V14.01,2013-12-28 22:11:00,
2013-12-28 14:16:00,48.0,7.7,30.16,NW,322,6.3,6.3,19,0.00,,SKC,0.00,VWS V14.01,2013-12-28 22:16:00,
2013-12-28 14:21:00,48.0,7.7,30.16,WNW,292,4.0,5.8,19,0.00,,SKC,0.00,VWS V14.01,2013-12-28 22:21:00,
2013-12-28 14:26:00,48.2,7.9,30.16,NW,312,10.5,10.5,19,0.00,,SKC,0.00,VWS V14.01,2013-12-28 22:26:00,
2013-12-28 14:31:00,47.8,7.6,30.16,NW,305,8.7,8.7,19,0.00,,SKC,0.00,VWS V14.01,2013-12-28 22:31:00,
2013-12-28 14:36:00,47.7,7.4,30.16,NNW,331,5.4,5.8,19,0.00,,SKC,0.00,VWS V14.01,2013-12-28 22:36:00,
2013-12-28 14:41:00,47.5,7.3,30.16,West,266,7.6,8.3,19,0.00,,SKC,0.00,VWS V14.01,2013-12-28 22:41:00,
2013-12-28 14:46:00,47.1,7.0,30.19,NW,315,5.4,6.3,19,0.00,,SKC,0.00,VWS V14.01,2013-12-28 22:46:00,
2013-12-28 14:51:00,47.1,7.0,30.19,NW,315,7.6,9.6,19,0.00,,SKC,0.00,VWS V14.01,2013-12-28 22:51:00,
2013-12-28 14:56:00,46.9,6.8,30.19,NW,307,5.4,8.3,19,0.00,,SKC,0.00,VWS V14.01,2013-12-28 22:56:00,
2013-12-28 15:01:00,46.9,6.8,30.16,NW,319,8.1,8.1,19,0.00,,SKC,0.00,VWS V14.01,2013-12-28 23:01:00,
2013-12-28 15:06:00,46.6,6.5,30.16,NW,306,7.6,7.6,19,0.00,,SKC,0.00,VWS V14.01,2013-12-28 23:06:00,
2013-12-28 15:11:00,46.8,9.9,30.16,NW,314,5.8,5.8,22,0.00,,SKC,0.00,VWS V14.01,2013-12-28 23:11:00,
2013-12-28 15:16:00,47.1,10.2,30.16,NNW,334,5.4,5.4,22,0.00,,SKC,0.00,VWS V14.01,2013-12-28 23:16:00,
2013-12-28 15:21:00,46.9,10.1,30.16,NW,326,5.4,5.4,22,0.00,,SKC,0.00,VWS V14.01,2013-12-28 23:21:00,
2013-12-28 15:26:00,46.6,6.5,30.16,NW,321,4.0,6.3,19,0.00,,SKC,0.00,VWS V14.01,2013-12-28 23:26:00,
2013-12-28 15:31:00,46.8,6.7,30.19,NW,317,4.9,5.4,19,0.00,,SKC,0.00,VWS V14.01,2013-12-28 23:31:00,
2013-12-28 15:36:00,47.3,7.1,30.19,NW,326,5.4,5.8,19,0.00,,SKC,0.00,VWS V14.01,2013-12-28 23:36:00,
2013-12-28 15:41:00,47.5,10.6,30.19,WNW,296,6.3,6.3,22,0.00,,SKC,0.00,VWS V14.01,2013-12-28 23:41:00,
2013-12-28 15:46:00,47.3,10.4,30.16,NW,314,4.0,5.4,22,0.00,,SKC,0.00,VWS V14.01,2013-12-28 23:46:00,
2013-12-28 15:51:00,47.1,10.2,30.16,WNW,297,5.4,6.7,22,0.00,,SKC,0.00,VWS V14.01,2013-12-28 23:51:00,
2013-12-28 15:56:00,46.8,9.9,30.16,West,274,2.7,5.8,22,0.00,,SKC,0.00,VWS V14.01,2013-12-28 23:56:00,
2013-12-28 16:01:00,46.0,9.3,30.16,NW,307,4.9,4.9,22,0.00,,SKC,0.00,VWS V14.01,2013-12-29 00:01:00,
2013-12-28 16:06:00,45.3,8.7,30.16,WNW,291,2.7,4.0,22,0.00,,SKC,0.00,VWS V14.01,2013-12-29 00:06:00,
2013-12-28 16:11:00,43.9,8.5,30.16,WNW,292,0.0,2.7,23,0.00,,SKC,0.00,VWS V14.01,2013-12-29 00:11:00,
2013-12-28 16:16:00,42.3,7.1,30.16,West,261,0.0,0.0,23,0.00,,SKC,0.00,VWS V14.01,2013-12-29 00:16:00,
2013-12-28 16:21:00,41.0,6.1,30.16,West,261,0.0,0.0,23,0.00,,SKC,0.00,VWS V14.01,2013-12-29 00:21:00,
2013-12-28 16:26:00,40.3,5.4,30.16,WSW,248,0.0,0.0,23,0.00,,SKC,0.00,VWS V14.01,2013-12-29 00:26:00,
2013-12-28 16:31:00,39.6,4.8,30.16,WSW,248,0.0,0.0,23,0.00,,SKC,0.00,VWS V14.01,2013-12-29 00:31:00,
2013-12-28 16:36:00,38.8,5.2,30.16,WSW,248,0.0,0.0,24,0.00,,SKC,0.00,VWS V14.01,2013-12-29 00:36:00,
2013-12-28 16:41:00,38.5,4.8,30.16,WSW,248,0.0,0.0,24,0.00,,SKC,0.00,VWS V14.01,2013-12-29 00:41:00,
2013-12-28 16:46:00,38.3,4.7,30.16,WSW,248,0.0,0.0,24,0.00,,SKC,0.00,VWS V14.01,2013-12-29 00:46:00,
2013-12-28 16:51:00,37.2,3.8,30.16,WSW,248,0.0,0.0,24,0.00,,SKC,0.00,VWS V14.01,2013-12-29 00:51:00,
2013-12-28 16:56:00,36.3,5.6,30.16,WSW,248,0.0,0.0,27,0.00,,SKC,0.00,VWS V14.01,2013-12-29 00:56:00,
2013-12-28 17:01:00,36.0,5.2,30.19,WSW,248,0.0,0.0,27,0.00,,SKC,0.00,VWS V14.01,2013-12-29 01:01:00,
2013-12-28 17:06:00,35.4,4.8,30.19,WSW,253,0.0,0.0,27,0.00,,SKC,0.00,VWS V14.01,2013-12-29 01:06:00,
2013-12-28 17:11:00,35.4,7.1,30.19,West,280,0.0,0.0,30,0.00,,SKC,0.00,VWS V14.01,2013-12-29 01:11:00,
2013-12-28 17:16:00,35.6,7.2,30.19,WSW,258,0.0,0.0,30,0.00,,SKC,0.00,VWS V14.01,2013-12-29 01:16:00,
2013-12-28 17:21:00,35.6,7.2,30.19,WSW,257,0.0,0.0,30,0.00,,SKC,0.00,VWS V14.01,2013-12-29 01:21:00,
2013-12-28 17:26:00,35.2,7.7,30.19,WNW,293,4.9,4.9,31,0.00,,SKC,0.00,VWS V14.01,2013-12-29 01:26:00,
2013-12-28 17:31:00,34.9,9.4,30.19,WNW,293,3.6,4.0,34,0.00,,SKC,0.00,VWS V14.01,2013-12-29 01:31:00,
2013-12-28 17:36:00,34.9,13.0,30.19,West,281,4.0,4.0,40,0.00,,SKC,0.00,VWS V14.01,2013-12-29 01:36:00,
2013-12-28 17:41:00,35.1,13.2,30.19,WNW,282,6.3,6.3,40,0.00,,SKC,0.00,VWS V14.01,2013-12-29 01:41:00,
2013-12-28 17:46:00,35.2,13.4,30.19,WNW,289,5.8,8.1,40,0.00,,SKC,0.00,VWS V14.01,2013-12-29 01:46:00,
2013-12-28 17:51:00,35.1,13.2,30.19,WNW,298,4.0,6.3,40,0.00,,SKC,0.00,VWS V14.01,2013-12-29 01:51:00,
2013-12-28 17:56:00,35.1,13.2,30.19,NW,305,3.1,4.5,40,0.00,,SKC,0.00,VWS V14.01,2013-12-29 01:56:00,
2013-12-28 18:01:00,34.7,12.9,30.22,West,270,0.0,3.6,40,0.00,,SKC,0.00,VWS V14.01,2013-12-29 02:01:00,
2013-12-28 18:06:00,34.2,12.9,30.22,NW,316,3.1,3.1,41,0.00,,SKC,0.00,VWS V14.01,2013-12-29 02:06:00,
2013-12-28 18:11:00,33.6,12.4,30.22,NW,307,2.2,2.7,41,0.00,,SKC,0.00,VWS V14.01,2013-12-29 02:11:00,
2013-12-28 18:16:00,32.9,12.3,30.22,NW,304,0.0,0.0,42,0.00,,SKC,0.00,VWS V14.01,2013-12-29 02:16:00,
2013-12-28 18:21:00,32.4,12.4,30.22,NW,304,0.0,0.0,43,0.00,,SKC,0.00,VWS V14.01,2013-12-29 02:21:00,
2013-12-28 18:25:00,32.0,13.1,30.22,SW,217,0.0,0.0,45,0.00,,SKC,0.00,VWS V14.01,2013-12-29 02:25:00,
2013-12-28 18:30:00,31.8,12.9,30.22,SW,216,0.0,0.0,45,0.00,,SKC,0.00,VWS V14.01,2013-12-29 02:30:00,
2013-12-28 18:35:00,31.5,13.1,30.22,SW,216,0.0,0.0,46,0.00,,SKC,0.00,VWS V14.01,2013-12-29 02:35:00,
2013-12-28 18:40:00,30.9,12.6,30.22,SSW,212,0.0,0.0,46,0.00,,SKC,0.00,VWS V14.01,2013-12-29 02:40:00,
2013-12-28 18:45:00,30.4,13.1,30.22,SSW,203,0.0,0.0,48,0.00,,SKC,0.00,VWS V14.01,2013-12-29 02:45:00,
2013-12-28 18:50:00,30.0,13.6,30.22,SSW,197,0.0,0.0,50,0.00,,SKC,0.00,VWS V14.01,2013-12-29 02:50:00,
2013-12-28 18:55:00,29.7,13.3,30.22,SSW,197,0.0,0.0,50,0.00,,SKC,0.00,VWS V14.01,2013-12-29 02:55:00,
2013-12-28 19:00:00,29.1,13.3,30.22,SSW,197,0.0,0.0,51,0.00,,SKC,0.00,VWS V14.01,2013-12-29 03:00:00,
2013-12-28 19:05:00,29.5,14.5,30.22,South,176,0.0,0.0,53,0.00,,SKC,0.00,VWS V14.01,2013-12-29 03:05:00,
2013-12-28 19:10:00,29.5,14.0,30.22,SE,146,0.0,0.0,52,0.00,,SKC,0.00,VWS V14.01,2013-12-29 03:10:00,
2013-12-28 19:15:00,29.7,14.2,30.22,SSW,193,3.1,4.0,52,0.00,,SKC,0.00,VWS V14.01,2013-12-29 03:15:00,
2013-12-28 19:20:00,29.5,13.6,30.22,SSW,200,2.7,2.7,51,0.00,,SKC,0.00,VWS V14.01,2013-12-29 03:20:00,
2013-12-28 19:25:00,29.1,13.7,30.22,SSW,196,4.0,4.0,52,0.00,,SKC,0.00,VWS V14.01,2013-12-29 03:25:00,
2013-12-28 19:30:00,29.3,14.7,30.22,SSE,165,3.1,3.6,54,0.00,,SKC,0.00,VWS V14.01,2013-12-29 03:30:00,
2013-12-28 19:35:00,30.2,15.6,30.22,South,173,4.9,4.9,54,0.00,,SKC,0.00,VWS V14.01,2013-12-29 03:35:00,
2013-12-28 19:40:00,30.4,15.3,30.22,South,178,4.0,4.0,53,0.00,,SKC,0.00,VWS V14.01,2013-12-29 03:40:00,
2013-12-28 19:45:00,30.9,15.4,30.22,SSE,167,2.7,4.0,52,0.00,,SKC,0.00,VWS V14.01,2013-12-29 03:45:00,
2013-12-28 19:50:00,31.1,15.1,30.22,South,189,3.1,3.6,51,0.00,,SKC,0.00,VWS V14.01,2013-12-29 03:50:00,
2013-12-28 19:55:00,30.4,14.0,30.22,SSW,195,4.9,6.3,50,0.00,,SKC,0.00,VWS V14.01,2013-12-29 03:55:00,
2013-12-28 20:00:00,30.6,14.6,30.25,SSW,194,4.0,4.9,51,0.00,,SKC,0.00,VWS V14.01,2013-12-29 04:00:00,
2013-12-28 20:05:00,30.0,14.1,30.25,SSW,194,3.1,3.1,51,0.00,,SKC,0.00,VWS V14.01,2013-12-29 04:05:00,
2013-12-28 20:10:00,29.5,13.6,30.25,South,185,0.0,2.7,51,0.00,,SKC,0.00,VWS V14.01,2013-12-29 04:10:00,
2013-12-28 20:15:00,29.7,14.2,30.25,South,185,4.0,4.0,52,0.00,,SKC,0.00,VWS V14.01,2013-12-29 04:15:00,
2013-12-28 20:20:00,29.5,14.0,30.25,SSW,213,4.0,4.0,52,0.00,,SKC,0.00,VWS V14.01,2013-12-29 04:20:00,
2013-12-28 20:25:00,29.3,14.3,30.25,SSW,209,4.9,4.9,53,0.00,,SKC,0.00,VWS V14.01,2013-12-29 04:25:00,
2013-12-28 20:30:00,28.9,14.0,30.25,SSW,194,3.6,3.6,53,0.00,,SKC,0.00,VWS V14.01,2013-12-29 04:30:00,
2013-12-28 20:35:00,28.6,13.6,30.25,SSW,193,3.1,3.1,53,0.00,,SKC,0.00,VWS V14.01,2013-12-29 04:35:00,
2013-12-28 20:40:00,28.0,13.1,30.25,SSW,206,3.1,3.1,53,0.00,,SKC,0.00,VWS V14.01,2013-12-29 04:40:00,
2013-12-28 20:45:00,27.7,13.2,30.25,South,177,2.7,2.7,54,0.00,,SKC,0.00,VWS V14.01,2013-12-29 04:45:00,
2013-12-28 20:50:00,27.3,12.9,30.25,South,185,0.0,0.0,54,0.00,,SKC,0.00,VWS V14.01,2013-12-29 04:50:00,
2013-12-28 20:55:00,27.3,13.7,30.25,South,185,0.0,0.0,56,0.00,,SKC,0.00,VWS V14.01,2013-12-29 04:55:00,
2013-12-28 21:00:00,27.1,13.9,30.25,South,185,0.0,0.0,57,0.00,,SKC,0.00,VWS V14.01,2013-12-29 05:00:00,
2013-12-28 21:01:00,27.1,13.9,30.25,South,185,0.0,0.0,57,0.00,,SKC,0.00,VWS V14.01,2013-12-29 05:01:00,
2013-12-28 21:06:00,27.7,15.2,30.25,South,186,0.0,0.0,59,0.00,,SKC,0.00,VWS V14.01,2013-12-29 05:06:00,
2013-12-28 21:11:00,27.5,14.7,30.25,South,186,0.0,0.0,58,0.00,,SKC,0.00,VWS V14.01,2013-12-29 05:11:00,
2013-12-28 21:16:00,27.9,15.4,30.25,South,185,0.0,0.0,59,0.00,,SKC,0.00,VWS V14.01,2013-12-29 05:16:00,
2013-12-28 21:21:00,28.0,15.6,30.25,South,185,0.0,0.0,59,0.00,,SKC,0.00,VWS V14.01,2013-12-29 05:21:00,
2013-12-28 21:26:00,28.0,14.8,30.25,South,185,0.0,0.0,57,0.00,,SKC,0.00,VWS V14.01,2013-12-29 05:26:00,
2013-12-28 21:31:00,27.9,14.2,30.25,South,185,0.0,0.0,56,0.00,,SKC,0.00,VWS V14.01,2013-12-29 05:31:00,
2013-12-28 21:36:00,27.1,13.1,30.25,South,185,0.0,0.0,55,0.00,,SKC,0.00,VWS V14.01,2013-12-29 05:36:00,
2013-12-28 21:41:00,26.6,13.0,30.25,South,185,0.0,0.0,56,0.00,,SKC,0.00,VWS V14.01,2013-12-29 05:41:00,
2013-12-28 21:46:00,25.7,11.8,30.25,South,185,0.0,0.0,55,0.00,,SKC,0.00,VWS V14.01,2013-12-29 05:46:00,
2013-12-28 21:51:00,25.0,11.1,30.25,South,185,0.0,0.0,55,0.00,,SKC,0.00,VWS V14.01,2013-12-29 05:51:00,
2013-12-28 21:56:00,24.4,11.0,30.25,South,185,0.0,0.0,56,0.00,,SKC,0.00,VWS V14.01,2013-12-29 05:56:00,
2013-12-28 22:01:00,24.3,11.2,30.28,SW,219,0.0,0.0,57,0.00,,SKC,0.00,VWS V14.01,2013-12-29 06:01:00,
2013-12-28 22:06:00,24.4,12.2,30.28,SW,224,0.0,0.0,59,0.00,,SKC,0.00,VWS V14.01,2013-12-29 06:06:00,
2013-12-28 22:11:00,24.8,13.3,30.28,SW,224,0.0,0.0,61,0.00,,SKC,0.00,VWS V14.01,2013-12-29 06:11:00,
2013-12-28 22:16:00,25.2,14.4,30.28,SW,222,0.0,0.0,63,0.00,,SKC,0.00,VWS V14.01,2013-12-29 06:16:00,
2013-12-28 22:21:00,24.8,13.6,30.28,SW,222,0.0,0.0,62,0.00,,SKC,0.00,VWS V14.01,2013-12-29 06:21:00,
2013-12-28 22:26:00,24.3,12.8,30.28,SW,222,0.0,0.0,61,0.00,,SKC,0.00,VWS V14.01,2013-12-29 06:26:00,
2013-12-28 22:31:00,23.5,12.1,30.28,SW,222,0.0,0.0,61,0.00,,SKC,0.00,VWS V14.01,2013-12-29 06:31:00,
2013-12-28 22:36:00,23.5,12.8,30.28,SW,222,0.0,0.0,63,0.00,,SKC,0.00,VWS V14.01,2013-12-29 06:36:00,
2013-12-28 22:41:00,23.4,12.6,30.28,SW,222,0.0,0.0,63,0.00,,SKC,0.00,VWS V14.01,2013-12-29 06:41:00,
2013-12-28 22:46:00,23.2,12.8,30.28,SSW,210,0.0,0.0,64,0.00,,SKC,0.00,VWS V14.01,2013-12-29 06:46:00,
2013-12-28 22:51:00,22.6,12.3,30.28,SSW,210,0.0,0.0,64,0.00,,SKC,0.00,VWS V14.01,2013-12-29 06:51:00,
2013-12-28 22:56:00,22.3,12.0,30.28,SSW,208,0.0,0.0,64,0.00,,SKC,0.00,VWS V14.01,2013-12-29 06:56:00,
2013-12-28 23:01:00,22.3,12.7,30.28,SSW,195,0.0,0.0,66,0.00,,SKC,0.00,VWS V14.01,2013-12-29 07:01:00,
2013-12-28 23:06:00,21.9,12.0,30.28,SSW,195,0.0,0.0,65,0.00,,SKC,0.00,VWS V14.01,2013-12-29 07:06:00,
2013-12-28 23:11:00,21.7,11.8,30.28,SSW,195,0.0,0.0,65,0.00,,SKC,0.00,VWS V14.01,2013-12-29 07:11:00,
2013-12-28 23:16:00,21.9,12.3,30.25,South,183,0.0,0.0,66,0.00,,SKC,0.00,VWS V14.01,2013-12-29 07:16:00,
2013-12-28 23:21:00,21.9,12.7,30.25,SSE,168,0.0,0.0,67,0.00,,SKC,0.00,VWS V14.01,2013-12-29 07:21:00,
2013-12-28 23:26:00,22.6,14.0,30.25,SE,135,3.6,4.0,69,0.00,,SKC,0.00,VWS V14.01,2013-12-29 07:26:00,
2013-12-28 23:31:00,23.4,15.7,30.25,SE,133,3.6,3.6,72,0.00,,SKC,0.00,VWS V14.01,2013-12-29 07:31:00,
2013-12-28 23:36:00,24.3,17.2,30.25,SE,124,3.1,3.1,74,0.00,,SKC,0.00,VWS V14.01,2013-12-29 07:36:00,
2013-12-28 23:41:00,24.8,17.7,30.25,SE,124,2.7,3.6,74,0.00,,SKC,0.00,VWS V14.01,2013-12-29 07:41:00,
2013-12-28 23:46:00,24.6,16.9,30.25,SE,124,2.7,2.7,72,0.00,,SKC,0.00,VWS V14.01,2013-12-29 07:46:00,
2013-12-28 23:51:00,24.1,16.0,30.25,SE,124,0.0,0.0,71,0.00,,SKC,0.00,VWS V14.01,2013-12-29 07:51:00,
2013-12-28 23:56:00,23.7,15.4,30.25,SE,124,0.0,0.0,70,0.00,,SKC,0.00,VWS V14.01,2013-12-29 07:56:00,